createdAt,value
2018-08-17T00:00:56.316Z,100702.73
2018-08-17T00:03:25.401Z,100700.02
2018-08-17T00:05:54.402Z,100706.42
2018-08-17T00:08:23.272Z,100702.02
2018-08-17T00:10:52.167Z,100706.27
2018-08-17T00:13:23.164Z,100698.41
2018-08-17T00:15:51.931Z,100699.99
2018-08-17T00:18:21.137Z,100693.98
2018-08-17T00:20:50.056Z,100688.48
2018-08-17T00:23:19.119Z,100690.47
2018-08-17T00:25:47.912Z,100692.95
2018-08-17T00:28:16.836Z,100691.39
2018-08-17T00:30:45.764Z,100689.28
2018-08-17T00:33:14.841Z,100693.00
2018-08-17T00:35:44.807Z,100689.42
2018-08-17T00:38:13.757Z,100683.83
2018-08-17T00:40:42.632Z,100690.58
2018-08-17T00:43:11.630Z,100683.22
2018-08-17T00:45:40.433Z,100677.98
2018-08-17T00:48:09.539Z,100684.13
2018-08-17T00:50:38.493Z,100691.69
2018-08-17T00:53:07.569Z,100695.54
2018-08-17T00:55:36.532Z,100699.63
2018-08-17T00:58:05.486Z,100697.22
2018-08-17T01:00:34.254Z,100702.70
2018-08-17T01:03:03.099Z,100704.34
2018-08-17T01:05:31.830Z,100703.38
2018-08-17T01:08:00.625Z,100707.55
2018-08-17T01:10:29.447Z,100702.40
2018-08-17T01:12:58.351Z,100708.27
2018-08-17T01:15:27.161Z,100716.27
2018-08-17T01:17:56.028Z,100712.11
2018-08-17T01:20:24.841Z,100714.16
2018-08-17T01:22:53.743Z,100715.95
2018-08-17T01:25:22.632Z,100727.39
2018-08-17T01:27:51.428Z,100722.81
2018-08-17T01:30:20.129Z,100722.67
2018-08-17T01:32:48.876Z,100730.99
2018-08-17T01:35:17.579Z,100737.72
2018-08-17T01:37:46.372Z,100740.05
2018-08-17T01:40:15.047Z,100741.66
2018-08-17T01:42:43.841Z,100735.72
2018-08-17T01:45:13.057Z,100741.90
2018-08-17T01:47:41.878Z,100739.48
2018-08-17T01:50:10.766Z,100747.83
2018-08-17T01:52:39.586Z,100783.67
2018-08-17T01:55:10.004Z,100775.45
2018-08-17T01:57:38.707Z,100779.62
2018-08-17T02:00:09.469Z,100788.99
2018-08-17T02:02:39.690Z,100797.41
2018-08-17T02:05:09.158Z,100789.09
2018-08-17T02:07:37.997Z,100798.63
2018-08-17T02:10:08.990Z,100804.11
2018-08-17T02:12:38.282Z,100811.44
2018-08-17T02:15:07.192Z,100808.67
2018-08-17T02:17:36.018Z,100813.86
2018-08-17T02:20:05.150Z,100823.19
2018-08-17T02:22:33.862Z,100831.59
2018-08-17T02:25:02.756Z,100822.95
2018-08-17T02:27:31.554Z,100820.69
2018-08-17T02:30:00.404Z,100820.92
2018-08-17T02:32:29.048Z,100816.83
2018-08-17T02:34:57.824Z,100816.77
2018-08-17T02:37:26.551Z,100820.73
2018-08-17T02:39:55.365Z,100822.08
2018-08-17T02:42:24.184Z,100812.80
2018-08-17T02:44:53.035Z,100830.03
2018-08-17T02:47:21.835Z,100840.18
2018-08-17T02:49:50.708Z,100839.28
2018-08-17T02:52:20.340Z,100836.84
2018-08-17T02:54:49.238Z,100840.04
2018-08-17T02:57:18.146Z,100845.20
2018-08-17T02:59:46.939Z,100856.63
2018-08-17T03:02:15.750Z,100849.43
2018-08-17T03:04:44.529Z,100845.17
2018-08-17T03:07:13.286Z,100845.73
2018-08-17T03:09:42.113Z,100853.06
2018-08-17T03:12:10.882Z,100852.89
2018-08-17T03:14:39.703Z,100849.95
2018-08-17T03:17:08.471Z,100846.28
2018-08-17T03:19:37.173Z,100848.44
2018-08-17T03:22:05.978Z,100846.94
2018-08-17T03:24:34.754Z,100840.42
2018-08-17T03:27:03.527Z,100840.98
2018-08-17T03:29:32.289Z,100843.52
2018-08-17T03:32:01.088Z,100838.95
2018-08-17T03:34:29.904Z,100834.53
2018-08-17T03:36:58.794Z,100837.45
2018-08-17T03:39:27.464Z,100829.77
2018-08-17T03:41:56.294Z,100833.33
2018-08-17T03:44:24.957Z,100826.58
2018-08-17T03:46:53.798Z,100828.14
2018-08-17T03:49:22.489Z,100845.55
2018-08-17T03:51:51.275Z,100837.45
2018-08-17T03:54:20.170Z,100831.17
2018-08-17T03:56:49.033Z,100837.48
2018-08-17T03:59:17.939Z,100836.98
2018-08-17T04:01:46.799Z,100836.98
2018-08-17T04:04:15.594Z,100838.04
2018-08-17T04:06:44.379Z,100844.58
2018-08-17T04:09:13.214Z,100833.23
2018-08-17T04:11:42.034Z,100841.92
2018-08-17T04:14:10.972Z,100845.31
2018-08-17T04:16:39.828Z,100842.86
2018-08-17T04:19:08.598Z,100836.64
2018-08-17T04:21:37.507Z,100846.75
2018-08-17T04:24:06.333Z,100858.73
2018-08-17T04:26:35.170Z,100868.60
2018-08-17T04:29:03.906Z,100877.50
2018-08-17T04:31:32.734Z,100882.90
2018-08-17T04:34:01.419Z,100898.84
2018-08-17T04:36:30.251Z,100909.90
2018-08-17T04:38:59.021Z,100913.88
2018-08-17T04:41:27.876Z,100916.36
2018-08-17T04:43:56.579Z,100920.79
2018-08-17T04:46:25.378Z,100925.47
2018-08-17T04:48:54.154Z,100925.55
2018-08-17T04:51:22.921Z,100912.66
2018-08-17T04:53:51.782Z,100910.24
2018-08-17T04:56:20.674Z,100913.97
2018-08-17T04:58:49.568Z,100911.40
2018-08-17T05:01:18.470Z,100899.48
2018-08-17T05:03:47.774Z,100889.53
2018-08-17T05:06:16.588Z,100891.78
2018-08-17T05:08:45.702Z,100904.42
2018-08-17T05:11:15.069Z,100889.98
2018-08-17T05:13:44.482Z,100892.76
2018-08-17T05:16:13.382Z,100895.31
2018-08-17T05:18:42.877Z,100888.97
2018-08-17T05:21:11.717Z,100884.37
2018-08-17T05:23:40.441Z,100886.88
2018-08-17T05:26:09.653Z,100890.59
2018-08-17T05:28:38.410Z,100896.20
2018-08-17T05:31:07.608Z,100906.16
2018-08-17T05:33:36.415Z,100914.28
2018-08-17T05:36:05.349Z,100914.18
2018-08-17T05:38:34.126Z,100905.95
2018-08-17T05:41:03.014Z,100906.97
2018-08-17T05:43:31.845Z,100908.09
2018-08-17T05:46:00.628Z,100909.74
2018-08-17T05:48:29.525Z,100923.25
2018-08-17T05:50:58.321Z,100928.34
2018-08-17T05:53:27.289Z,100932.33
2018-08-17T05:55:56.179Z,100928.67
2018-08-17T05:58:25.132Z,100932.73
2018-08-17T06:00:54.048Z,100933.34
2018-08-17T06:03:23.019Z,100941.43
2018-08-17T06:05:51.876Z,100944.97
2018-08-17T06:08:20.777Z,100936.53
2018-08-17T06:10:49.869Z,100933.83
2018-08-17T06:13:18.995Z,100932.78
2018-08-17T06:15:47.949Z,100941.50
2018-08-17T06:18:16.911Z,100954.06
2018-08-17T06:20:45.771Z,100962.53
2018-08-17T06:23:15.518Z,100967.95
2018-08-17T06:25:44.370Z,100980.44
2018-08-17T06:28:13.272Z,100997.03
2018-08-17T06:30:42.198Z,101002.37
2018-08-17T06:33:11.041Z,101005.04
2018-08-17T06:35:39.875Z,101007.45
2018-08-17T06:38:08.680Z,101007.75
2018-08-17T06:40:37.462Z,101005.87
2018-08-17T06:43:06.370Z,100999.33
2018-08-17T06:45:35.151Z,101000.67
2018-08-17T06:48:04.022Z,101007.26
2018-08-17T06:50:32.906Z,101007.08
2018-08-17T06:53:01.671Z,100996.58
2018-08-17T06:55:30.495Z,100998.53
2018-08-17T06:57:59.330Z,100994.58
2018-08-17T07:00:29.155Z,100988.94
2018-08-17T07:02:59.055Z,100975.69
2018-08-17T07:05:27.905Z,100970.27
2018-08-17T07:07:57.411Z,100980.61
2018-08-17T07:10:27.243Z,100998.42
2018-08-17T07:12:56.110Z,101005.34
2018-08-17T07:15:24.958Z,101013.40
2018-08-17T07:17:53.829Z,101012.57
2018-08-17T07:20:24.671Z,101018.81
2018-08-17T07:22:53.631Z,101031.09
2018-08-17T07:25:22.651Z,101031.13
2018-08-17T07:27:51.692Z,101028.64
2018-08-17T07:30:21.483Z,101035.72
2018-08-17T07:32:50.360Z,101046.55
2018-08-17T07:35:19.325Z,101053.07
2018-08-17T07:37:48.200Z,101056.61
2018-08-17T07:40:17.070Z,101048.77
2018-08-17T07:42:45.958Z,101055.33
2018-08-17T07:45:14.766Z,101036.36
2018-08-17T07:47:43.664Z,101036.66
2018-08-17T07:50:18.763Z,101032.86
2018-08-17T07:52:47.698Z,101023.11
2018-08-17T07:55:16.612Z,101024.46
2018-08-17T07:57:45.383Z,101024.69
2018-08-17T08:00:16.159Z,101017.88
2018-08-17T08:02:44.961Z,101011.11
2018-08-17T08:05:13.792Z,101012.46
2018-08-17T08:07:42.947Z,101009.30
2018-08-17T08:10:13.106Z,101009.33
2018-08-17T08:12:45.932Z,101014.26
2018-08-17T08:15:14.692Z,101021.11
2018-08-17T08:17:43.550Z,101027.20
2018-08-17T08:20:25.323Z,101037.91
2018-08-17T08:23:05.070Z,101046.68
2018-08-17T08:25:33.890Z,101047.77
2018-08-17T08:28:02.620Z,101042.52
2018-08-17T08:30:32.565Z,101062.78
2018-08-17T08:33:01.726Z,101063.38
2018-08-17T08:35:31.006Z,101067.55
2018-08-17T08:38:00.071Z,101069.20
2018-08-17T08:40:29.323Z,101061.49
2018-08-17T08:42:58.262Z,101058.67
2018-08-17T08:45:27.113Z,101055.92
2018-08-17T08:47:56.292Z,101059.59
2018-08-17T08:50:27.511Z,101058.66
2018-08-17T08:52:56.530Z,101064.22
2018-08-17T08:55:25.454Z,101065.06
2018-08-17T08:57:54.474Z,101065.62
2018-08-17T09:00:25.027Z,101059.17
2018-08-17T09:02:53.782Z,101063.51
2018-08-17T09:05:22.899Z,101070.72
2018-08-17T09:07:52.003Z,101071.36
2018-08-17T09:10:20.798Z,101071.32
2018-08-17T09:12:49.822Z,101072.84
2018-08-17T09:15:18.571Z,101079.03
2018-08-17T09:17:47.412Z,101073.44
2018-08-17T09:20:17.178Z,101074.25
2018-08-17T09:22:46.054Z,101077.01
2018-08-17T09:25:15.037Z,101071.88
2018-08-17T09:27:43.824Z,101072.88
2018-08-17T09:30:14.188Z,101079.04
2018-08-17T09:32:43.255Z,101080.95
2018-08-17T09:35:13.518Z,101082.81
2018-08-17T09:37:42.598Z,101090.73
2018-08-17T09:40:13.542Z,101089.96
2018-08-17T09:42:42.398Z,101083.47
2018-08-17T09:45:12.984Z,101086.69
2018-08-17T09:47:42.158Z,101083.67
2018-08-17T09:50:14.567Z,101086.59
2018-08-17T09:52:43.878Z,101091.72
2018-08-17T09:55:13.387Z,101096.28
2018-08-17T09:57:43.254Z,101093.26
2018-08-17T10:00:13.997Z,101092.49
2018-08-17T10:02:48.438Z,101092.00
2018-08-17T10:05:31.574Z,101101.55
2018-08-17T10:08:05.649Z,101107.22
2018-08-17T10:10:35.693Z,101106.16
2018-08-17T10:13:04.877Z,101100.45
2018-08-17T10:15:35.662Z,101092.91
2018-08-17T10:18:16.310Z,101100.00
2018-08-17T10:20:58.649Z,101102.33
2018-08-17T10:23:52.773Z,101106.53
2018-08-17T10:26:24.809Z,101103.00
2018-08-17T10:31:27.839Z,101103.45
2018-08-17T10:33:57.356Z,101096.44
2018-08-17T10:36:26.949Z,101105.55
2018-08-17T10:38:56.107Z,101103.13
2018-08-17T10:41:25.103Z,101104.03
2018-08-17T10:43:53.927Z,101098.41
2018-08-17T10:46:22.655Z,101103.31
2018-08-17T10:48:51.708Z,101106.45
2018-08-17T10:51:22.680Z,101112.73
2018-08-17T10:53:51.539Z,101109.81
2018-08-17T10:56:20.794Z,101113.41
2018-08-17T10:58:49.698Z,101115.48
2018-08-17T11:01:19.713Z,101116.42
2018-08-17T11:03:48.508Z,101110.98
2018-08-17T11:06:17.989Z,101103.51
2018-08-17T11:08:46.793Z,101109.56
2018-08-17T11:11:17.810Z,101110.69
2018-08-17T11:13:46.634Z,101112.56
2018-08-17T11:16:15.555Z,101113.49
2018-08-17T11:18:44.786Z,101104.34
2018-08-17T11:21:14.974Z,101113.73
2018-08-17T11:23:43.803Z,101115.27
2018-08-17T11:26:12.827Z,101112.99
2018-08-17T11:28:41.862Z,101108.91
2018-08-17T11:31:10.938Z,101125.08
2018-08-17T11:33:40.115Z,101119.91
2018-08-17T11:36:08.946Z,101122.92
2018-08-17T11:38:37.923Z,101120.40
2018-08-17T11:41:10.946Z,101127.03
2018-08-17T11:43:39.677Z,101113.88
2018-08-17T11:46:08.725Z,101118.80
2018-08-17T11:48:38.404Z,101124.77
2018-08-17T11:51:07.464Z,101141.30
2018-08-17T11:53:36.239Z,101139.05
2018-08-17T11:56:05.117Z,101143.34
2018-08-17T11:58:33.943Z,101143.38
2018-08-17T12:01:06.974Z,101143.68
2018-08-17T12:03:35.797Z,101142.31
2018-08-17T12:06:04.706Z,101146.30
2018-08-17T12:08:33.615Z,101153.31
2018-08-17T12:11:06.587Z,101152.55
2018-08-17T12:13:38.559Z,101150.43
2018-08-17T12:16:11.235Z,101152.33
2018-08-17T12:18:40.181Z,101148.31
2018-08-17T12:21:09.100Z,101151.05
2018-08-17T12:23:38.085Z,101157.31
2018-08-17T12:26:07.087Z,101152.25
2018-08-17T12:28:36.179Z,101148.80
2018-08-17T12:31:06.475Z,101152.39
2018-08-17T12:33:35.313Z,101150.03
2018-08-17T12:36:04.477Z,101159.65
2018-08-17T12:38:33.459Z,101161.00
2018-08-17T12:41:02.253Z,101157.83
2018-08-17T12:43:36.839Z,101166.84
2018-08-17T12:46:05.735Z,101158.61
2018-08-17T12:48:34.630Z,101154.30
2018-08-17T12:51:03.686Z,101154.75
2018-08-17T12:53:32.778Z,101147.08
2018-08-17T12:56:01.632Z,101141.74
2018-08-17T12:58:30.579Z,101142.13
2018-08-17T13:00:59.402Z,101142.66
2018-08-17T13:03:28.160Z,101140.38
2018-08-17T13:05:57.006Z,101140.44
2018-08-17T13:08:29.504Z,101141.55
2018-08-17T13:10:59.827Z,101150.27
2018-08-17T13:13:28.752Z,101142.98
2018-08-17T13:16:02.957Z,101154.05
2018-08-17T13:18:41.795Z,101141.38
2018-08-17T13:21:10.587Z,101143.05
2018-08-17T13:23:39.774Z,101143.75
2018-08-17T13:26:08.670Z,101141.03
2018-08-17T13:28:37.583Z,101149.75
2018-08-17T13:31:07.391Z,101150.59
2018-08-17T13:33:36.218Z,101150.95
2018-08-17T13:36:05.200Z,101144.34
2018-08-17T13:38:34.131Z,101146.28
2018-08-17T13:41:02.931Z,101137.91
2018-08-17T13:43:32.868Z,101138.41
2018-08-17T13:46:01.761Z,101148.36
2018-08-17T13:48:30.663Z,101153.87
2018-08-17T13:50:59.589Z,101153.47
2018-08-17T13:53:29.526Z,101140.61
2018-08-17T13:55:58.472Z,101136.27
2018-08-17T13:58:27.306Z,101132.26
2018-08-17T14:00:56.058Z,101132.88
2018-08-17T14:03:24.929Z,101134.84
2018-08-17T14:05:53.665Z,101117.88
2018-08-17T14:08:22.614Z,101131.50
2018-08-17T14:10:51.458Z,101123.97
2018-08-17T14:13:20.443Z,101119.23
2018-08-17T14:15:49.326Z,101122.79
2018-08-17T14:18:18.141Z,101115.16
2018-08-17T14:20:46.968Z,101112.02
2018-08-17T14:23:15.842Z,101115.01
2018-08-17T14:25:44.614Z,101114.67
2018-08-17T14:28:13.419Z,101109.66
2018-08-17T14:30:42.282Z,101103.58
2018-08-17T14:33:11.222Z,101113.33
2018-08-17T14:35:40.031Z,101125.08
2018-08-17T14:38:08.947Z,101125.65
2018-08-17T14:40:37.776Z,101129.09
2018-08-17T14:43:10.078Z,101116.20
2018-08-17T14:45:38.934Z,101115.86
2018-08-17T14:48:07.850Z,101109.73
2018-08-17T14:50:36.680Z,101105.59
2018-08-17T14:53:06.595Z,101101.94
2018-08-17T14:55:35.390Z,101102.52
2018-08-17T14:58:04.192Z,101095.83
2018-08-17T15:00:33.747Z,101103.04
2018-08-17T15:03:04.672Z,101097.48
2018-08-17T15:05:33.429Z,101093.05
2018-08-17T15:08:02.192Z,101092.77
2018-08-17T15:10:31.043Z,101088.91
2018-08-17T15:13:01.055Z,101093.20
2018-08-17T15:15:29.956Z,101089.69
2018-08-17T15:17:59.728Z,101093.85
2018-08-17T15:20:28.548Z,101093.46
2018-08-17T15:22:58.406Z,101081.56
2018-08-17T15:25:27.328Z,101085.77
2018-08-17T15:27:56.222Z,101090.42
2018-08-17T15:30:25.111Z,101081.73
2018-08-17T15:32:54.000Z,101086.00
2018-08-17T15:35:22.813Z,101079.59
2018-08-17T15:37:51.676Z,101083.06
2018-08-17T15:40:20.618Z,101082.54
2018-08-17T15:42:51.480Z,101081.53
2018-08-17T15:45:21.186Z,101084.41
2018-08-17T15:47:49.954Z,101084.63
2018-08-17T15:50:20.144Z,101079.48
2018-08-17T15:52:48.889Z,101073.87
2018-08-17T15:55:17.692Z,101084.56
2018-08-17T15:57:46.575Z,101081.09
2018-08-17T16:00:19.324Z,101078.47
2018-08-17T16:02:48.229Z,101076.58
2018-08-17T16:05:17.286Z,101079.33
2018-08-17T16:07:46.199Z,101078.60
2018-08-17T16:10:16.183Z,101082.41
2018-08-17T16:12:45.683Z,101083.81
2018-08-17T16:15:14.623Z,101082.38
2018-08-17T16:17:43.704Z,101078.82
2018-08-17T16:20:13.353Z,101081.22
2018-08-17T16:22:42.973Z,101077.81
2018-08-17T16:25:12.811Z,101082.66
2018-08-17T16:27:42.619Z,101086.41
2018-08-17T16:30:14.030Z,101097.08
2018-08-17T16:32:43.057Z,101096.89
2018-08-17T16:35:12.553Z,101098.73
2018-08-17T16:37:45.492Z,101089.06
2018-08-17T16:40:14.503Z,101098.31
2018-08-17T16:42:43.411Z,101098.45
2018-08-17T16:45:12.389Z,101095.22
2018-08-17T16:47:41.447Z,101095.72
2018-08-17T16:50:10.387Z,101086.59
2018-08-17T16:52:39.262Z,101088.80
2018-08-17T16:55:08.178Z,101090.70
2018-08-17T16:57:37.334Z,101089.88
2018-08-17T17:00:07.588Z,101089.09
2018-08-17T17:02:36.490Z,101091.84
2018-08-17T17:05:06.590Z,101091.50
2018-08-17T17:07:35.415Z,101090.17
2018-08-17T17:10:04.690Z,101091.70
2018-08-17T17:12:33.479Z,101095.64
2018-08-17T17:15:07.950Z,101096.62
2018-08-17T17:17:36.689Z,101101.31
2018-08-17T17:20:07.009Z,101095.47
2018-08-17T17:22:35.859Z,101104.36
2018-08-17T17:25:19.959Z,101105.72
2018-08-17T17:27:49.898Z,101103.67
2018-08-17T17:30:18.796Z,101104.41
2018-08-17T17:32:47.512Z,101103.46
2018-08-17T17:35:16.317Z,101109.57
2018-08-17T17:37:45.190Z,101105.69
2018-08-17T17:40:14.109Z,101114.30
2018-08-17T17:42:42.967Z,101107.97
2018-08-17T17:45:11.795Z,101114.78
2018-08-17T17:47:40.592Z,101113.53
2018-08-17T17:50:09.572Z,101117.41
2018-08-17T17:52:38.307Z,101123.28
2018-08-17T17:55:06.962Z,101129.80
2018-08-17T17:57:35.788Z,101122.99
2018-08-17T18:00:04.912Z,101125.92
2018-08-17T18:02:33.842Z,101131.58
2018-08-17T18:05:02.692Z,101133.22
2018-08-17T18:07:39.627Z,101136.94
2018-08-17T18:10:08.623Z,101144.19
2018-08-17T18:12:37.480Z,101136.30
2018-08-17T18:15:06.571Z,101137.41
2018-08-17T18:17:35.484Z,101143.39
2018-08-17T18:20:04.455Z,101146.01
2018-08-17T18:22:33.468Z,101145.55
2018-08-17T18:25:16.969Z,101144.48
2018-08-17T18:27:46.110Z,101144.44
2018-08-17T18:30:15.151Z,101147.66
2018-08-17T18:32:44.063Z,101151.41
2018-08-17T18:35:13.035Z,101155.09
2018-08-17T18:37:41.943Z,101160.33
2018-08-17T18:40:12.118Z,101166.38
2018-08-17T18:42:40.966Z,101164.09
2018-08-17T18:45:09.962Z,101168.79
2018-08-17T18:47:38.756Z,101169.79
2018-08-17T18:50:08.144Z,101180.52
2018-08-17T18:52:37.117Z,101181.30
2018-08-17T18:55:06.061Z,101182.33
2018-08-17T18:57:34.894Z,101188.00
2018-08-17T19:00:03.839Z,101187.95
2018-08-17T19:02:32.816Z,101192.25
2018-08-17T19:05:01.583Z,101195.11
2018-08-17T19:07:30.442Z,101196.58
2018-08-17T19:09:59.384Z,101198.61
2018-08-17T19:12:28.190Z,101209.56
2018-08-17T19:14:57.010Z,101210.04
2018-08-17T19:17:34.103Z,101212.55
2018-08-17T19:20:02.852Z,101214.53
2018-08-17T19:22:47.268Z,101215.22
2018-08-17T19:25:16.899Z,101223.84
2018-08-17T19:27:45.758Z,101230.33
2018-08-17T19:30:25.926Z,101224.44
2018-08-17T19:32:56.304Z,101232.59
2018-08-17T19:35:25.208Z,101237.58
2018-08-17T19:37:54.238Z,101241.99
2018-08-17T19:40:23.441Z,101234.86
2018-08-17T19:42:52.301Z,101231.81
2018-08-17T19:45:21.452Z,101226.86
2018-08-17T19:47:50.584Z,101236.23
2018-08-17T19:50:19.438Z,101239.89
2018-08-17T19:52:48.308Z,101237.27
2018-08-17T19:55:17.243Z,101241.03
2018-08-17T19:57:46.062Z,101246.05
2018-08-17T20:00:14.986Z,101248.52
2018-08-17T20:02:43.914Z,101253.99
2018-08-17T20:05:12.717Z,101254.95
2018-08-17T20:07:41.697Z,101256.14
2018-08-17T20:10:11.821Z,101256.58
2018-08-17T20:12:41.022Z,101258.48
2018-08-17T20:15:09.844Z,101262.77
2018-08-17T20:17:39.064Z,101261.26
2018-08-17T20:20:09.758Z,101265.73
2018-08-17T20:22:38.709Z,101265.98
2018-08-17T20:25:13.108Z,101270.17
2018-08-17T20:27:42.012Z,101278.09
2018-08-17T20:30:15.923Z,101277.05
2018-08-17T20:32:45.180Z,101279.17
2018-08-17T20:35:13.931Z,101273.18
2018-08-17T20:37:46.924Z,101275.75
2018-08-17T20:40:16.111Z,101274.42
2018-08-17T20:42:45.290Z,101273.05
2018-08-17T20:45:14.067Z,101277.55
2018-08-17T20:47:43.528Z,101276.16
2018-08-17T20:50:15.745Z,101282.68
2018-08-17T20:52:51.595Z,101280.30
2018-08-17T20:55:20.760Z,101279.40
2018-08-17T20:57:52.524Z,101288.61
2018-08-17T21:00:22.167Z,101290.48
2018-08-17T21:02:51.090Z,101292.87
2018-08-17T21:05:20.174Z,101296.33
2018-08-17T21:07:49.780Z,101288.66
2018-08-17T21:10:18.777Z,101297.34
2018-08-17T21:12:48.145Z,101295.11
2018-08-17T21:15:17.310Z,101299.56
2018-08-17T21:17:46.288Z,101303.27
2018-08-17T21:20:15.042Z,101303.98
2018-08-17T21:22:44.023Z,101309.48
2018-08-17T21:25:12.800Z,101306.50
2018-08-17T21:27:41.606Z,101304.44
2018-08-17T21:30:10.727Z,101307.96
2018-08-17T21:32:39.581Z,101306.97
2018-08-17T21:35:08.719Z,101308.03
2018-08-17T21:37:37.980Z,101307.20
2018-08-17T21:40:13.709Z,101312.18
2018-08-17T21:42:42.732Z,101308.88
2018-08-17T21:45:11.589Z,101310.72
2018-08-17T21:47:40.538Z,101308.11
2018-08-17T21:50:13.745Z,101306.30
2018-08-17T21:52:43.477Z,101312.78
2018-08-17T21:55:12.375Z,101305.95
2018-08-17T21:57:41.334Z,101305.69
2018-08-17T22:00:19.879Z,101306.95
2018-08-17T22:02:48.965Z,101311.31
2018-08-17T22:05:27.943Z,101308.48
2018-08-17T22:07:56.690Z,101310.06
2018-08-17T22:10:25.488Z,101305.17
2018-08-17T22:12:54.407Z,101308.77
2018-08-17T22:15:25.783Z,101308.17
2018-08-17T22:17:54.741Z,101312.23
2018-08-17T22:20:23.505Z,101313.14
2018-08-17T22:22:52.350Z,101311.11
2018-08-17T22:25:21.175Z,101309.82
2018-08-17T22:27:50.354Z,101310.66
2018-08-17T22:30:21.330Z,101309.91
2018-08-17T22:32:50.218Z,101316.73
2018-08-17T22:35:19.221Z,101317.03
2018-08-17T22:37:47.938Z,101319.05
2018-08-17T22:40:16.770Z,101319.13
2018-08-17T22:42:47.832Z,101322.02
2018-08-17T22:45:16.806Z,101324.89
2018-08-17T22:47:45.876Z,101319.43
2018-08-17T22:50:14.757Z,101323.47
2018-08-17T22:52:43.534Z,101332.70
2018-08-17T22:55:12.400Z,101334.44
2018-08-17T22:57:41.197Z,101334.78
2018-08-17T23:00:20.447Z,101331.44
2018-08-17T23:02:50.490Z,101334.97
2018-08-17T23:05:21.604Z,101334.59
2018-08-17T23:07:50.474Z,101336.46
2018-08-17T23:10:21.389Z,101343.32
2018-08-17T23:12:51.136Z,101342.88
2018-08-17T23:15:20.216Z,101344.34
2018-08-17T23:17:56.232Z,101340.91
2018-08-17T23:20:30.189Z,101345.45
2018-08-17T23:23:00.279Z,101346.20
2018-08-17T23:25:29.336Z,101350.56
2018-08-17T23:27:58.251Z,101354.05
2018-08-17T23:30:27.186Z,101347.83
2018-08-17T23:32:55.957Z,101348.84
2018-08-17T23:35:24.810Z,101347.77
2018-08-17T23:37:53.603Z,101347.53
2018-08-17T23:40:22.509Z,101358.77
2018-08-17T23:42:51.383Z,101357.69
2018-08-17T23:45:20.321Z,101358.80
2018-08-17T23:47:49.014Z,101361.02
2018-08-17T23:50:18.221Z,101354.70
2018-08-17T23:52:47.142Z,101354.73
2018-08-17T23:55:17.572Z,101353.20
2018-08-17T23:57:46.358Z,101354.06
